Quincy Center, Massachusetts
Current Conditions -  °F | °C
As of 9:54 PM on Tuesday 25 Nov 2014 (Local Time) from KBOS Reporting Station
Overcast Overcast  
Wind Chill: 46°   Ceiling: 20000
Heat Index: 49°   Visibility: 10mi
Dew Point: 29°   Wind: 7mph
Humidity: 46%   Direction: 230°SW
Pressure: 30.08"   Gusts: NA
Location:  42.2468°N, 71.0071°W
Report Text: KBOS 260254Z 23006KT 10SM SCT130 OVC200 09/M02 A3008 RMK AO2 SLP184 T00941017 51029
Loading
Personal Weather Stations






























Interactive Weather Map New forecast layout! Learn more

10-Day Weather Forecast

Advertisements
Track Severe Weather on mobile